Time;durP1;ratioP1;P1;durP2;ratioP2;P2;SDS_P1;SDS_P2;PMS_P1;PMS_P2;Temp;Humidity;BMP_temperature;BMP_pressure;BME280_temperature;BME280_humidity;BME280_pressure;Samples;Min_cycle;Max_cycle;Signal;HPM_P1;HPM_P2
2022/07/29 00:01:29;;;;;;;4.22;2.83;;;;;;;16.04;69.65;99996.14;1726883;83;21140;-83
2022/07/29 00:03:56;;;;;;;5.33;2.70;;;;;;;16.00;69.57;99990.60;1726647;83;21126;-80
2022/07/29 00:06:22;;;;;;;8.38;3.37;;;;;;;15.94;69.68;99993.95;1675896;85;21114;-80
2022/07/29 00:08:49;;;;;;;9.58;3.90;;;;;;;15.93;69.74;100001.51;1676193;84;21529;-80
2022/07/29 00:11:17;;;;;;;9.08;4.30;;;;;;;15.92;69.73;99997.16;1675378;85;21053;-83
2022/07/29 00:13:45;;;;;;;7.90;3.95;;;;;;;15.90;69.77;100004.34;1671223;85;21113;-83
2022/07/29 00:16:11;;;;;;;10.40;3.80;;;;;;;15.89;69.96;99995.13;1671883;85;21082;-82
2022/07/29 00:18:39;;;;;;;7.37;4.47;;;;;;;15.87;70.01;99995.20;1671298;85;21572;-81
2022/07/29 00:21:05;;;;;;;7.15;3.85;;;;;;;15.86;70.06;99995.27;1671866;85;21596;-82
2022/07/29 00:23:32;;;;;;;8.05;3.80;;;;;;;15.80;70.17;99992.42;1671622;85;22216;-82
2022/07/29 00:25:59;;;;;;;11.33;3.72;;;;;;;15.77;70.16;99985.97;1671914;85;21486;-82
2022/07/29 00:28:26;;;;;;;12.05;3.80;;;;;;;15.75;70.23;99989.11;1727084;83;21145;-83
2022/07/29 00:30:52;;;;;;;7.10;3.30;;;;;;;15.73;70.21;99987.00;1723775;82;21008;-84
2022/07/29 00:33:19;;;;;;;7.28;4.05;;;;;;;15.70;70.24;99985.37;1709188;83;21012;-81
2022/07/29 00:35:46;;;;;;;8.30;3.70;;;;;;;15.67;70.47;99995.25;1701970;83;20980;-80
2022/07/29 00:38:17;;;;;;;7.78;4.10;;;;;;;15.60;70.52;99992.91;1701956;84;21366;-83
2022/07/29 00:40:44;;;;;;;10.45;3.85;;;;;;;15.58;70.56;99986.83;1701582;84;21174;-84
2022/07/29 00:43:13;;;;;;;12.75;4.40;;;;;;;15.55;70.79;99986.97;1701879;83;21000;-82
2022/07/29 00:45:42;;;;;;;11.38;3.90;;;;;;;15.52;71.03;99991.08;1680287;84;21104;-82
2022/07/29 00:48:08;;;;;;;8.58;4.30;;;;;;;15.48;71.18;99982.02;1701676;84;21543;-81
2022/07/29 00:50:35;;;;;;;8.85;4.42;;;;;;;15.46;71.23;99991.36;1701804;84;21710;-83
2022/07/29 00:53:03;;;;;;;13.72;4.37;;;;;;;15.43;71.39;99992.83;1701845;84;22053;-83
2022/07/29 00:55:30;;;;;;;13.35;4.60;;;;;;;15.40;71.61;99993.00;1701665;84;21581;-84
2022/07/29 00:57:56;;;;;;;7.15;3.95;;;;;;;15.38;71.57;99986.88;1701905;84;21564;-82
2022/07/29 01:00:25;;;;;;;6.85;3.87;;;;;;;15.39;71.56;99983.31;1701760;84;21076;-83
2022/07/29 01:02:52;;;;;;;7.55;3.90;;;;;;;15.38;71.49;99980.25;1701721;84;21447;-81
2022/07/29 01:05:22;;;;;;;6.75;4.20;;;;;;;15.39;71.35;99978.02;1701703;84;21071;-83
2022/07/29 01:07:51;;;;;;;10.45;4.05;;;;;;;15.35;71.22;99975.12;1702034;84;21063;-82
2022/07/29 01:10:18;;;;;;;8.43;3.83;;;;;;;15.31;71.08;99974.86;1701652;84;21099;-82
2022/07/29 01:12:48;;;;;;;6.90;3.50;;;;;;;15.28;71.00;99977.64;1701837;84;21078;-83
2022/07/29 01:15:14;;;;;;;6.22;3.33;;;;;;;15.23;71.10;99986.69;1700681;84;21587;-83
2022/07/29 01:17:56;;;;;;;11.45;3.72;;;;;;;15.21;71.43;99980.60;1700461;84;21113;-83
2022/07/29 01:20:49;;;;;;;6.05;3.55;;;;;;;15.18;71.72;99979.86;1700372;84;20995;-81
2022/07/29 01:24:11;;;;;;;7.40;3.50;;;;;;;15.16;71.88;99979.95;1700406;84;21596;-83
2022/07/29 01:26:57;;;;;;;4.85;2.85;;;;;;;15.13;72.08;99976.12;1700535;84;21149;-82
2022/07/29 01:29:38;;;;;;;;;;;;;;;15.11;72.22;99976.63;1703049;84;22207;-82
2022/07/29 01:32:15;;;;;;;10.13;4.15;;;;;;;15.10;72.60;99980.23;1708339;83;20677;-83
2022/07/29 01:35:05;;;;;;;9.25;4.40;;;;;;;15.05;72.77;99974.28;1714867;83;21144;-82
2022/07/29 01:37:40;;;;;;;8.50;3.92;;;;;;;15.02;72.89;99982.36;1715322;83;21200;-81
2022/07/29 01:40:27;;;;;;;10.28;4.12;;;;;;;14.99;73.00;99979.84;1715193;83;21028;-82
2022/07/29 01:42:57;;;;;;;8.18;4.37;;;;;;;14.97;73.09;99985.22;1715058;82;21544;-83
2022/07/29 01:45:39;;;;;;;8.68;4.47;;;;;;;14.96;73.01;99979.98;1693111;83;21073;-82
2022/07/29 01:48:17;;;;;;;9.40;4.87;;;;;;;14.94;73.09;99976.55;1715072;83;21009;-82
2022/07/29 01:51:15;;;;;;;9.15;4.70;;;;;;;14.91;73.04;99980.22;1715126;82;21137;-83
2022/07/29 01:54:17;;;;;;;12.58;4.75;;;;;;;14.89;72.97;99978.55;1738435;80;21059;-81
2022/07/29 01:56:44;;;;;;;12.85;4.65;;;;;;;14.86;72.85;99979.09;1737217;82;21121;-82
2022/07/29 01:59:11;;;;;;;12.88;5.42;;;;;;;14.84;72.69;99976.98;1737015;82;21066;-83
2022/07/29 02:01:38;;;;;;;13.20;4.78;;;;;;;14.82;72.72;99975.31;1736811;82;21544;-83
2022/07/29 02:04:06;;;;;;;11.60;4.67;;;;;;;14.79;72.90;99980.75;1737004;82;21681;-83
2022/07/29 02:06:34;;;;;;;12.93;4.92;;;;;;;14.75;72.98;99984.00;1737209;82;20995;-82
2022/07/29 02:09:00;;;;;;;11.30;4.40;;;;;;;14.71;73.23;99979.78;1740759;82;21879;-83
2022/07/29 02:11:27;;;;;;;12.23;5.00;;;;;;;14.70;73.29;99984.67;1716080;82;21511;-82
2022/07/29 02:13:55;;;;;;;10.40;4.65;;;;;;;14.70;73.39;99987.31;1736248;82;21051;-84
2022/07/29 02:16:23;;;;;;;13.50;4.80;;;;;;;14.70;73.39;99989.11;1736966;82;22114;-83
2022/07/29 02:18:52;;;;;;;7.65;4.40;;;;;;;14.67;73.51;99984.33;1736723;82;21502;-83
2022/07/29 02:21:23;;;;;;;7.33;4.00;;;;;;;14.66;73.41;99989.72;1736419;82;21134;-82
2022/07/29 02:23:50;;;;;;;8.83;4.47;;;;;;;14.64;73.35;99984.92;1737364;82;20984;-82
2022/07/29 02:26:18;;;;;;;8.25;4.33;;;;;;;14.62;73.46;99988.11;1736859;82;21054;-84
2022/07/29 02:28:44;;;;;;;13.65;3.98;;;;;;;14.62;73.59;99995.59;1736840;82;21078;-83
2022/07/29 02:31:11;;;;;;;8.13;4.15;;;;;;;14.60;73.83;99993.95;1736441;82;20971;-82
2022/07/29 02:33:37;;;;;;;12.03;3.95;;;;;;;14.57;73.84;99988.75;1737065;82;21771;-81
2022/07/29 02:36:04;;;;;;;8.28;3.75;;;;;;;14.55;74.00;99993.25;1738217;82;20991;-81
2022/07/29 02:41:29;;;;;;;9.40;3.95;;;;;;;14.49;74.16;99991.27;1737153;82;20980;-83
2022/07/29 02:44:00;;;;;;;9.00;4.10;;;;;;;14.49;74.22;99992.59;1736729;80;21050;-82
2022/07/29 02:46:34;;;;;;;6.90;3.47;;;;;;;14.47;74.33;99995.78;1737143;82;21245;-82
2022/07/29 02:49:16;;;;;;;6.87;3.47;;;;;;;14.47;74.45;99994.45;1716320;82;21058;-81
2022/07/29 02:51:59;;;;;;;10.93;3.72;;;;;;;14.47;74.42;99996.22;1737402;82;21609;-83
2022/07/29 02:54:34;;;;;;;7.75;3.27;;;;;;;14.49;74.57;99997.89;1736798;82;21562;-83
2022/07/29 02:57:03;;;;;;;10.82;4.30;;;;;;;14.52;74.67;99996.03;1737094;82;22242;-83
2022/07/29 02:59:31;;;;;;;6.33;3.58;;;;;;;14.56;74.83;99998.93;1737218;82;21132;-82
2022/07/29 03:01:58;;;;;;;12.07;3.58;;;;;;;14.57;75.01;99996.22;1736930;82;22095;-82
2022/07/29 03:04:26;;;;;;;10.10;3.95;;;;;;;14.58;75.12;100002.40;1736960;82;20971;-81
2022/07/29 03:06:52;;;;;;;8.33;3.80;;;;;;;14.59;75.28;100005.45;1736954;82;21011;-82
2022/07/29 03:09:20;;;;;;;9.05;3.80;;;;;;;14.60;75.67;100004.54;1737159;82;21056;-82
2022/07/29 03:11:46;;;;;;;8.30;3.52;;;;;;;14.63;75.73;100003.09;1737202;82;21134;-83
2022/07/29 03:14:12;;;;;;;10.58;3.42;;;;;;;14.67;75.89;100001.54;1737332;82;21082;-82
2022/07/29 03:16:39;;;;;;;6.12;3.45;;;;;;;14.73;75.94;100003.08;1736835;82;22191;-83
2022/07/29 03:19:07;;;;;;;8.53;3.70;;;;;;;14.77;76.20;100003.80;1736931;82;20999;-82
2022/07/29 03:21:33;;;;;;;14.95;4.50;;;;;;;14.79;76.41;100000.61;1737137;82;21290;-84
2022/07/29 03:24:00;;;;;;;15.38;3.95;;;;;;;14.82;76.30;100005.30;1728916;82;22272;-83
2022/07/29 03:26:26;;;;;;;11.38;4.08;;;;;;;14.88;76.13;99996.69;1727828;83;21488;-84
2022/07/29 03:28:54;;;;;;;10.75;4.42;;;;;;;14.93;75.86;99997.34;1728000;83;21941;-83
2022/07/29 03:31:22;;;;;;;8.85;4.12;;;;;;;15.01;75.97;100001.83;1727748;82;21012;-82
2022/07/29 03:33:49;;;;;;;7.83;4.50;;;;;;;15.05;76.23;100006.08;1725897;82;21057;-82
2022/07/29 03:36:15;;;;;;;12.18;5.92;;;;;;;15.11;76.12;100003.13;1725703;83;21778;-83
2022/07/29 03:38:42;;;;;;;14.13;5.00;;;;;;;15.16;75.44;100005.58;1725291;83;21071;-83
2022/07/29 03:41:10;;;;;;;11.55;4.72;;;;;;;15.22;74.90;100006.16;1726093;83;21212;-83
2022/07/29 03:43:39;;;;;;;11.03;4.60;;;;;;;15.30;75.51;100008.91;1725886;83;21007;-84
2022/07/29 03:46:08;;;;;;;7.30;4.03;;;;;;;15.35;75.50;100001.16;1725775;83;21064;-82
2022/07/29 03:48:35;;;;;;;14.33;5.00;;;;;;;15.43;75.61;100000.78;1725272;83;22238;-83
2022/07/29 03:51:04;;;;;;;9.75;4.00;;;;;;;15.48;75.34;100004.08;1749568;80;21052;-83
2022/07/29 03:53:32;;;;;;;9.05;4.37;;;;;;;15.54;74.52;100005.59;1761948;81;21107;-82
2022/07/29 03:56:00;;;;;;;6.45;3.83;;;;;;;15.61;73.40;100010.52;1762334;81;21515;-82
2022/07/29 03:58:28;;;;;;;12.78;4.90;;;;;;;15.70;73.29;100005.71;1762883;81;20981;-82
2022/07/29 04:00:55;;;;;;;10.13;4.17;;;;;;;15.80;73.15;100012.33;1761969;81;21147;-83
2022/07/29 04:03:22;;;;;;;9.48;3.80;;;;;;;15.90;73.00;100010.97;1762468;81;21056;-83
2022/07/29 04:06:05;;;;;;;6.53;3.58;;;;;;;16.03;72.91;100010.36;1741311;81;21130;-82
2022/07/29 04:08:33;;;;;;;10.03;3.80;;;;;;;16.14;72.82;100005.39;1762458;81;21059;-83
2022/07/29 04:11:01;;;;;;;8.03;4.00;;;;;;;16.27;73.16;99999.86;1762367;81;21063;-83
2022/07/29 04:13:30;;;;;;;9.43;3.30;;;;;;;16.40;74.10;100000.55;1762660;81;21107;-83
2022/07/29 04:15:57;;;;;;;6.90;2.60;;;;;;;16.51;73.36;99999.55;1762444;81;20984;-81
2022/07/29 04:18:24;;;;;;;3.70;2.20;;;;;;;16.62;72.47;99994.51;1762359;81;21036;-83
2022/07/29 04:20:52;;;;;;;5.50;2.40;;;;;;;16.75;72.25;99992.56;1762785;81;21044;-83
2022/07/29 04:23:19;;;;;;;3.02;2.00;;;;;;;16.88;71.13;99993.66;1762306;81;21100;-84
2022/07/29 04:25:47;;;;;;;6.08;1.25;;;;;;;17.00;70.25;99990.34;1762172;81;21219;-83
2022/07/29 04:28:13;;;;;;;4.45;1.47;;;;;;;17.14;68.94;99996.72;1761750;81;21915;-81
2022/07/29 04:30:41;;;;;;;3.72;1.37;;;;;;;17.26;67.79;99996.92;1762756;81;21049;-83
2022/07/29 04:33:10;;;;;;;5.42;1.40;;;;;;;17.38;66.73;99996.72;1765911;81;20947;-83
2022/07/29 04:35:38;;;;;;;3.47;1.50;;;;;;;17.51;65.79;100004.00;1767968;80;21182;-83
2022/07/29 04:38:05;;;;;;;5.05;1.30;;;;;;;17.62;64.62;100002.94;1767726;81;21231;-83
2022/07/29 04:40:32;;;;;;;6.58;1.40;;;;;;;17.73;63.90;100001.84;1768089;81;21503;-83
2022/07/29 04:43:00;;;;;;;4.22;1.05;;;;;;;17.86;63.23;100002.50;1773834;80;20980;-82
2022/07/29 04:45:28;;;;;;;5.72;1.10;;;;;;;17.98;62.67;100005.33;1767702;81;21004;-82
2022/07/29 04:47:55;;;;;;;1.82;1.02;;;;;;;18.10;62.18;100001.09;1768210;81;21059;-82
2022/07/29 04:50:22;;;;;;;3.90;1.20;;;;;;;18.22;61.39;99996.01;1767687;81;21122;-82
2022/07/29 04:52:49;;;;;;;1.70;0.98;;;;;;;18.32;61.52;99997.17;1768094;81;21091;-83
2022/07/29 04:55:17;;;;;;;1.62;1.00;;;;;;;18.40;60.35;99998.92;1767230;81;21099;-83
2022/07/29 04:57:44;;;;;;;4.35;1.17;;;;;;;18.48;60.13;99997.98;1768142;80;21068;-80
2022/07/29 05:00:11;;;;;;;3.95;1.45;;;;;;;18.56;59.77;100001.05;1767613;81;21496;-84
2022/07/29 05:02:39;;;;;;;4.40;1.40;;;;;;;18.66;59.41;99995.16;1767787;81;21183;-84
2022/07/29 05:05:07;;;;;;;4.12;1.10;;;;;;;18.79;58.88;99993.45;1767543;81;21070;-83
2022/07/29 05:07:35;;;;;;;7.78;1.30;;;;;;;18.91;59.23;99995.42;1767723;81;20999;-84
2022/07/29 05:10:05;;;;;;;4.65;1.10;;;;;;;19.06;58.69;99995.41;1767801;81;21063;-84
2022/07/29 05:12:31;;;;;;;9.18;1.40;;;;;;;19.17;57.42;99994.76;1767913;81;21115;-83
2022/07/29 05:14:59;;;;;;;3.33;1.15;;;;;;;19.23;55.98;99997.90;1767345;81;21728;-83
2022/07/29 05:17:28;;;;;;;6.65;1.55;;;;;;;19.30;55.78;99995.22;1767283;81;21539;-80
2022/07/29 05:19:54;;;;;;;4.47;1.25;;;;;;;19.38;55.42;99997.86;1767805;81;21107;-81
2022/07/29 05:22:23;;;;;;;2.80;1.30;;;;;;;19.46;54.85;100002.23;1767013;81;21043;-83
2022/07/29 05:24:49;;;;;;;4.62;1.52;;;;;;;19.52;54.66;100003.64;1767912;81;21115;-84
2022/07/29 05:27:16;;;;;;;2.72;1.12;;;;;;;19.61;54.83;100004.41;1767302;81;21128;-84
2022/07/29 05:29:43;;;;;;;6.10;1.10;;;;;;;19.68;53.91;100006.56;1737640;81;21514;-84
2022/07/29 05:32:09;;;;;;;2.75;1.20;;;;;;;19.80;53.72;100008.09;1720974;83;21108;-83
2022/07/29 05:34:36;;;;;;;6.00;1.10;;;;;;;19.90;52.82;100004.35;1725702;83;21048;-83
2022/07/29 05:37:03;;;;;;;3.17;1.10;;;;;;;19.98;52.55;100008.22;1725667;82;20998;-81
2022/07/29 05:39:30;;;;;;;7.37;1.40;;;;;;;20.06;51.89;100001.05;1725676;83;21111;-83
2022/07/29 05:41:57;;;;;;;8.13;1.35;;;;;;;20.15;51.88;99998.24;1725135;83;21127;-83
2022/07/29 05:44:25;;;;;;;4.62;1.20;;;;;;;20.23;51.78;99999.92;1725680;82;21122;-83
2022/07/29 05:46:51;;;;;;;2.55;1.20;;;;;;;20.33;51.95;99997.00;1725233;83;21048;-84
2022/07/29 05:49:19;;;;;;;3.12;1.25;;;;;;;20.40;51.32;99998.30;1725434;83;21071;-83
2022/07/29 05:51:48;;;;;;;3.42;1.05;;;;;;;20.50;51.47;100007.04;1725516;83;21002;-82
2022/07/29 05:54:16;;;;;;;9.53;1.40;;;;;;;20.59;51.05;99999.70;1725175;83;21183;-83
2022/07/29 05:56:44;;;;;;;4.03;1.30;;;;;;;20.69;50.97;100006.16;1725984;83;21461;-84
2022/07/29 05:59:10;;;;;;;2.45;1.20;;;;;;;20.80;50.45;100004.59;1736280;80;21081;-82
2022/07/29 06:01:39;;;;;;;2.75;1.02;;;;;;;20.89;49.69;99997.25;1736508;82;21062;-83
2022/07/29 06:04:06;;;;;;;4.28;1.30;;;;;;;20.97;49.19;100001.09;1736555;82;21542;-84
2022/07/29 06:06:35;;;;;;;7.30;1.00;;;;;;;21.07;48.70;99999.13;1736968;82;21125;-85
2022/07/29 06:09:03;;;;;;;2.10;0.95;;;;;;;21.17;48.83;99999.33;1736795;82;21499;-84
2022/07/29 06:11:31;;;;;;;3.95;1.10;;;;;;;21.26;48.25;100001.34;1734761;82;21035;-82
2022/07/29 06:13:57;;;;;;;8.53;1.20;;;;;;;21.36;48.25;100001.05;1735118;82;21015;-80
2022/07/29 06:16:24;;;;;;;6.83;1.30;;;;;;;21.48;47.69;99998.84;1736799;82;21111;-82
2022/07/29 06:18:50;;;;;;;4.35;0.90;;;;;;;21.56;47.18;99996.96;1737203;82;21082;-83
2022/07/29 06:21:17;;;;;;;2.85;1.07;;;;;;;21.67;47.29;99990.81;1735694;82;21058;-82
2022/07/29 06:23:45;;;;;;;4.67;1.05;;;;;;;21.78;46.91;99993.56;1735472;82;21027;-84
2022/07/29 06:26:12;;;;;;;8.68;1.15;;;;;;;21.88;46.54;99997.76;1736880;82;21032;-81
2022/07/29 06:28:41;;;;;;;9.08;1.07;;;;;;;21.99;46.01;99998.28;1737176;82;20964;-83
2022/07/29 06:31:07;;;;;;;6.05;1.20;;;;;;;22.09;45.77;100003.35;1736156;82;21704;-84
2022/07/29 06:33:35;;;;;;;2.77;1.25;;;;;;;22.18;44.55;100005.33;1723302;82;21594;-84
2022/07/29 06:36:05;;;;;;;9.13;1.20;;;;;;;22.28;44.38;100000.16;1708842;82;21134;-82
2022/07/29 06:38:33;;;;;;;8.98;1.57;;;;;;;22.36;44.34;100000.91;1708854;83;21134;-82
2022/07/29 06:41:09;;;;;;;6.12;1.12;;;;;;;22.47;43.95;100004.13;1709525;82;21468;-83
2022/07/29 06:43:41;;;;;;;3.98;1.10;;;;;;;22.55;43.45;100007.92;1709102;83;21666;-82
2022/07/29 06:46:13;;;;;;;1.95;1.07;;;;;;;22.65;42.96;100000.52;1702087;83;21068;-82
2022/07/29 06:48:42;;;;;;;3.52;1.45;;;;;;;22.72;44.08;99995.88;1702229;84;21091;-85
2022/07/29 06:51:09;;;;;;;12.88;1.25;;;;;;;22.82;43.35;99994.69;1702042;84;21111;-82
2022/07/29 06:53:36;;;;;;;6.50;1.25;;;;;;;22.89;44.28;99994.56;1701682;84;21137;-83
2022/07/29 06:56:04;;;;;;;8.83;1.20;;;;;;;23.00;42.65;99990.55;1701581;84;21103;-79
2022/07/29 06:58:30;;;;;;;2.98;1.22;;;;;;;23.08;42.56;99990.45;1701886;83;21008;-83
2022/07/29 07:01:00;;;;;;;2.85;1.02;;;;;;;23.17;43.82;99989.74;1701589;83;21143;-85
2022/07/29 07:03:27;;;;;;;2.10;1.10;;;;;;;23.27;42.93;99987.18;1703372;83;22229;-85
2022/07/29 07:05:54;;;;;;;4.20;1.17;;;;;;;23.37;42.49;99987.64;1701764;84;21091;-85
2022/07/29 07:08:21;;;;;;;1.92;1.00;;;;;;;23.48;41.17;99992.63;1701657;84;21048;-83
2022/07/29 07:10:48;;;;;;;3.98;0.90;;;;;;;23.51;41.24;99995.08;1701893;84;21041;-82
2022/07/29 07:13:17;;;;;;;4.37;1.35;;;;;;;23.58;41.86;99991.41;1702064;84;21076;-83
2022/07/29 07:15:45;;;;;;;1.92;1.00;;;;;;;23.65;42.25;99992.10;1701962;84;21201;-84
2022/07/29 07:18:13;;;;;;;4.05;1.95;;;;;;;23.77;41.65;99998.80;1701830;84;21083;-85
2022/07/29 07:20:40;;;;;;;5.62;1.70;;;;;;;23.85;41.87;99999.90;1701902;84;21056;-82
2022/07/29 07:23:07;;;;;;;4.58;1.47;;;;;;;23.95;41.87;100002.69;1689447;84;21057;-82
2022/07/29 07:25:35;;;;;;;2.52;0.93;;;;;;;24.05;42.04;100006.31;1684109;85;38862;-84
2022/07/29 07:28:01;;;;;;;6.55;1.37;;;;;;;24.16;42.33;100011.28;1684227;85;21011;-85
2022/07/29 07:30:28;;;;;;;7.28;1.40;;;;;;;24.27;42.67;100011.23;1684027;85;21595;-84
2022/07/29 07:32:55;;;;;;;3.72;1.25;;;;;;;24.37;42.59;100008.63;1686536;83;22135;-83
2022/07/29 07:35:21;;;;;;;7.30;1.37;;;;;;;24.47;42.94;99999.64;1725465;83;21500;-80
2022/07/29 07:37:49;;;;;;;10.72;1.30;;;;;;;24.59;42.68;99994.23;1725484;82;21505;-82
2022/07/29 07:40:17;;;;;;;3.22;1.32;;;;;;;24.71;42.68;100002.59;1725278;83;21072;-85
2022/07/29 07:42:44;;;;;;;6.33;3.27;;;;;;;24.83;41.68;100000.20;1725763;83;21759;-83
2022/07/29 07:45:10;;;;;;;10.18;2.27;;;;;;;24.92;41.48;99993.16;1725087;83;22062;-82
2022/07/29 07:47:38;;;;;;;6.90;1.80;;;;;;;25.00;40.78;99997.89;1725791;82;21076;-84
2022/07/29 07:50:06;;;;;;;7.60;1.65;;;;;;;25.00;39.30;100003.27;1725434;83;21001;-80
2022/07/29 07:52:33;;;;;;;10.30;1.47;;;;;;;24.96;40.62;100007.20;1728871;80;20981;-80
2022/07/29 07:54:59;;;;;;;2.65;1.30;;;;;;;24.99;40.09;100009.63;1762666;81;21156;-83
2022/07/29 07:57:26;;;;;;;7.20;1.60;;;;;;;25.03;39.79;99998.94;1762556;80;22119;-83
2022/07/29 07:59:52;;;;;;;3.20;1.35;;;;;;;25.08;39.71;100007.46;1762195;81;21574;-83
2022/07/29 08:02:19;;;;;;;4.62;1.75;;;;;;;25.15;40.07;100010.47;1762395;81;21020;-83
2022/07/29 08:04:45;;;;;;;1.92;1.32;;;;;;;25.24;40.41;100008.33;1762836;81;20973;-83
2022/07/29 08:07:14;;;;;;;3.50;1.42;;;;;;;25.38;40.28;100012.52;1762325;81;21101;-84
2022/07/29 08:09:42;;;;;;;2.83;1.35;;;;;;;25.49;39.58;100010.23;1762554;81;21103;-84
2022/07/29 08:12:08;;;;;;;3.12;1.30;;;;;;;25.62;39.94;100011.31;1762201;81;21120;-83
2022/07/29 08:14:36;;;;;;;4.42;1.47;;;;;;;25.73;39.45;100013.89;1762573;81;21592;-83
2022/07/29 08:17:03;;;;;;;7.50;1.52;;;;;;;25.83;39.35;100011.22;1762583;81;21024;-81
2022/07/29 08:19:32;;;;;;;5.70;1.17;;;;;;;25.94;39.25;100011.08;1762169;81;21215;-82
2022/07/29 08:21:58;;;;;;;1.90;1.22;;;;;;;26.05;39.79;100007.45;1762293;81;21075;-83
2022/07/29 08:27:06;;;;;;;3.65;1.30;;;;;;;26.31;40.31;100006.40;1705692;81;21102;-82
2022/07/29 08:29:33;;;;;;;3.12;1.32;;;;;;;26.44;39.46;99996.13;1762398;81;21048;-84
2022/07/29 08:31:59;;;;;;;6.45;1.60;;;;;;;26.57;39.31;100001.23;1762511;81;21107;-84
2022/07/29 08:34:26;;;;;;;3.27;1.20;;;;;;;26.72;38.11;99999.48;1742111;81;21088;-83
2022/07/29 08:36:55;;;;;;;3.55;1.30;;;;;;;26.78;37.15;100000.23;1725803;83;21017;-83
2022/07/29 08:39:23;;;;;;;3.08;1.45;;;;;;;26.75;36.38;99996.47;1726057;82;21028;-82
2022/07/29 08:41:51;;;;;;;7.37;2.22;;;;;;;26.70;37.38;99992.87;1725827;82;21556;-84
2022/07/29 08:44:18;;;;;;;12.78;1.80;;;;;;;26.77;37.37;99994.50;1725928;83;21777;-84
2022/07/29 08:46:45;;;;;;;9.10;1.50;;;;;;;26.76;36.95;99997.67;1725716;83;21080;-83
2022/07/29 08:49:13;;;;;;;5.55;1.32;;;;;;;26.64;37.06;99998.34;1726017;82;21013;-84
2022/07/29 08:51:41;;;;;;;2.45;1.27;;;;;;;26.55;38.01;99999.19;1725959;83;20949;-84
2022/07/29 08:54:09;;;;;;;8.23;1.50;;;;;;;26.55;37.50;99995.65;1726200;82;21072;-84
2022/07/29 08:56:36;;;;;;;7.70;1.95;;;;;;;26.51;37.46;99997.76;1725647;83;21153;-84
2022/07/29 08:59:05;;;;;;;8.25;2.30;;;;;;;26.45;37.39;99993.80;1725755;83;21651;-84
2022/07/29 09:01:33;;;;;;;34.55;16.65;;;;;;;26.42;37.90;99998.64;1726168;82;21970;-82
2022/07/29 09:04:02;;;;;;;18.07;6.97;;;;;;;26.45;37.99;100002.41;1725530;83;20993;-82
2022/07/29 09:06:33;;;;;;;12.13;2.20;;;;;;;26.50;37.56;99999.61;1725982;83;22235;-83
2022/07/29 09:09:01;;;;;;;8.10;4.00;;;;;;;26.54;36.92;99998.82;1725993;82;21112;-82
2022/07/29 09:11:28;;;;;;;4.17;1.77;;;;;;;26.53;37.55;99995.79;1725576;82;21005;-83
2022/07/29 09:13:56;;;;;;;9.13;1.87;;;;;;;26.48;37.10;100004.31;1725663;83;21017;-80
2022/07/29 09:16:23;;;;;;;6.03;1.50;;;;;;;26.44;37.48;100004.73;1705276;82;21025;-81
2022/07/29 09:18:49;;;;;;;3.75;1.30;;;;;;;26.43;37.23;100004.40;1725966;83;21051;-82
2022/07/29 09:24:13;;;;;;;4.12;2.15;;;;;;;26.31;37.74;100004.55;1717113;83;21600;-83
2022/07/29 09:26:45;;;;;;;6.17;1.60;;;;;;;26.32;37.73;100004.88;1699601;84;21619;-83
2022/07/29 09:29:14;;;;;;;2.92;1.52;;;;;;;26.39;36.84;100004.31;1699701;84;20960;-82
2022/07/29 09:31:50;;;;;;;7.72;1.42;;;;;;;26.38;36.76;99998.08;1699991;84;21115;-85
2022/07/29 09:34:24;;;;;;;2.75;1.10;;;;;;;26.43;37.47;99997.15;1705778;82;21143;-83
2022/07/29 09:36:51;;;;;;;5.00;1.25;;;;;;;26.56;38.84;99995.48;1714683;83;21564;-84
2022/07/29 09:39:45;;;;;;;6.78;1.45;;;;;;;26.80;39.31;99999.61;1715781;82;21699;-84
2022/07/29 09:42:08;;;;;;;4.87;1.57;;;;;;;27.02;39.01;99993.00;1692406;83;21651;-84
2022/07/29 09:44:48;;;;;;;5.95;2.50;;;;;;;27.22;38.95;99996.48;1715381;82;21068;-84
2022/07/29 09:47:18;;;;;;;3.85;2.15;;;;;;;27.27;38.05;99998.23;1715158;83;21014;-84
2022/07/29 09:49:57;;;;;;;3.02;1.42;;;;;;;27.31;37.75;99998.30;1715426;82;21104;-83
2022/07/29 09:52:28;;;;;;;5.45;1.37;;;;;;;27.36;37.28;99998.70;1715254;82;21049;-83
2022/07/29 09:55:10;;;;;;;5.35;2.50;;;;;;;27.42;37.72;99996.76;1715284;83;21125;-84
2022/07/29 09:57:37;;;;;;;8.13;2.08;;;;;;;27.49;37.01;99994.78;1715843;80;21022;-83
2022/07/29 10:00:09;;;;;;;9.15;1.95;;;;;;;27.53;36.78;99990.80;1736739;80;21136;-83
2022/07/29 10:02:40;;;;;;;5.55;1.80;;;;;;;27.59;35.96;99998.30;1737082;82;21490;-84
2022/07/29 10:05:20;;;;;;;6.05;1.37;;;;;;;27.59;36.10;99992.90;1737257;82;21502;-83
2022/07/29 10:07:51;;;;;;;6.67;1.60;;;;;;;27.62;35.71;99987.16;1736568;82;21042;-83
2022/07/29 10:10:30;;;;;;;3.35;1.37;;;;;;;27.72;36.23;99990.69;1737162;82;21487;-81
2022/07/29 10:13:07;;;;;;;2.67;1.30;;;;;;;27.82;36.31;99988.40;1736451;82;21159;-83
2022/07/29 10:15:43;;;;;;;3.02;1.32;;;;;;;27.88;36.08;99985.09;1732928;82;21035;-83
2022/07/29 10:18:11;;;;;;;2.62;1.25;;;;;;;27.92;36.29;99975.17;1737178;82;21610;-85
2022/07/29 10:20:40;;;;;;;11.00;2.83;;;;;;;28.05;36.98;99975.31;1736879;82;21812;-85
2022/07/29 10:23:06;;;;;;;9.00;2.33;;;;;;;28.19;37.65;99976.61;1733995;82;21011;-81
2022/07/29 10:25:34;;;;;;;10.48;1.50;;;;;;;28.34;37.70;99972.34;1736898;82;21564;-83
2022/07/29 10:28:01;;;;;;;6.85;1.65;;;;;;;28.48;35.76;99967.72;1737198;82;21447;-85
2022/07/29 10:30:28;;;;;;;2.90;1.20;;;;;;;28.60;35.05;99968.86;1735711;82;21063;-84
2022/07/29 10:33:17;;;;;;;3.55;1.65;;;;;;;28.66;34.54;99967.69;1736761;82;21118;-79
2022/07/29 10:36:23;;;;;;;3.45;1.15;;;;;;;28.73;34.40;99967.90;1713963;82;21090;-83
2022/07/29 10:39:39;;;;;;;5.05;1.20;;;;;;;28.82;35.39;99961.54;1709273;83;21086;-84
2022/07/29 10:42:20;;;;;;;3.65;1.47;;;;;;;28.95;35.60;99961.59;1688192;83;21095;-81
2022/07/29 10:44:47;;;;;;;6.97;1.42;;;;;;;29.11;35.51;99958.97;1702107;83;21508;-82
2022/07/29 10:47:25;;;;;;;10.55;2.40;;;;;;;29.23;33.86;99957.69;1701803;84;21004;-83
2022/07/29 10:50:02;;;;;;;3.10;1.37;;;;;;;29.18;32.81;99955.98;1702413;84;21150;-83
2022/07/29 10:52:53;;;;;;;2.87;1.32;;;;;;;28.94;32.82;99950.44;1701902;83;21016;-82
2022/07/29 10:55:42;;;;;;;4.37;1.90;;;;;;;28.74;33.17;99962.84;1702093;84;21503;-83
2022/07/29 10:58:20;;;;;;;5.67;1.65;;;;;;;28.53;33.96;99954.56;1701959;84;21064;-84
2022/07/29 11:00:50;;;;;;;4.03;1.50;;;;;;;28.50;33.55;99962.16;1701826;84;21528;-83
2022/07/29 11:03:49;;;;;;;1.98;1.50;;;;;;;28.52;34.12;99954.20;1701655;84;21068;-82
2022/07/29 11:06:17;;;;;;;3.22;1.32;;;;;;;28.67;35.20;99955.86;1702046;83;21117;-81
2022/07/29 11:08:43;;;;;;;3.10;1.30;;;;;;;28.85;32.82;99954.45;1701998;84;21056;-84
2022/07/29 11:11:29;;;;;;;5.50;1.45;;;;;;;28.80;33.09;99958.63;1701924;84;21123;-84
2022/07/29 11:13:56;;;;;;;5.70;1.72;;;;;;;28.68;33.01;99965.70;1702016;84;21612;-83
2022/07/29 11:16:25;;;;;;;1.35;1.00;;;;;;;28.56;33.47;99955.28;1701951;83;21103;-84
2022/07/29 11:19:15;;;;;;;1.82;1.35;;;;;;;28.64;33.80;99951.27;1701955;84;21777;-83
2022/07/29 11:21:47;;;;;;;3.67;1.40;;;;;;;28.85;32.41;99946.81;1701697;84;21016;-83
2022/07/29 11:24:30;;;;;;;3.10;1.30;;;;;;;28.85;32.18;99950.39;1698786;84;21066;-82
2022/07/29 11:27:13;;;;;;;14.87;1.80;;;;;;;28.77;32.72;99946.28;1700338;84;21043;-83
2022/07/29 11:29:49;;;;;;;5.35;1.40;;;;;;;28.68;32.36;99951.28;1700296;84;21185;-84
2022/07/29 11:32:18;;;;;;;7.12;1.40;;;;;;;28.67;33.51;99948.25;1700493;84;21836;-84
2022/07/29 11:34:47;;;;;;;7.85;1.65;;;;;;;28.74;33.48;99945.23;1706574;83;21057;-82
2022/07/29 11:37:15;;;;;;;6.05;1.37;;;;;;;28.68;32.96;99937.75;1707330;83;21198;-83
2022/07/29 11:40:07;;;;;;;6.17;1.85;;;;;;;28.65;33.49;99938.94;1725344;82;21096;-82
2022/07/29 11:42:39;;;;;;;4.60;1.22;;;;;;;28.74;33.14;99936.28;1725047;82;21051;-83
2022/07/29 11:45:17;;;;;;;3.60;1.25;;;;;;;28.84;32.77;99931.59;1725380;83;21189;-82
2022/07/29 11:47:50;;;;;;;5.55;1.20;;;;;;;28.99;32.95;99936.73;1725605;83;21191;-84
2022/07/29 11:50:34;;;;;;;5.62;1.32;;;;;;;29.15;32.63;99926.50;1725098;83;20997;-80
2022/07/29 11:53:03;;;;;;;2.95;1.27;;;;;;;29.26;32.03;99924.85;1725212;83;21099;-83